createdAt,value
2022-09-17T00:01:21.910Z,29.25
2022-09-17T00:06:46.812Z,28.50
2022-09-17T00:12:12.427Z,23.58
2022-09-17T00:17:37.571Z,27.35
2022-09-17T00:23:02.252Z,34.13
2022-09-17T00:28:27.760Z,33.92
2022-09-17T00:33:51.389Z,27.02
2022-09-17T00:39:16.673Z,25.38
2022-09-17T00:44:49.120Z,24.55
2022-09-17T00:50:18.600Z,25.70
2022-09-17T00:55:46.445Z,29.83
2022-09-17T01:01:12.876Z,32.00
2022-09-17T01:06:46.173Z,30.15
2022-09-17T01:12:36.710Z,34.65
2022-09-17T01:18:27.170Z,25.65
2022-09-17T01:24:12.084Z,27.08
2022-09-17T01:29:59.807Z,24.92
2022-09-17T01:35:38.188Z,21.38
2022-09-17T01:41:07.979Z,22.83
2022-09-17T01:46:38.171Z,36.35
2022-09-17T01:52:06.563Z,25.08
2022-09-17T01:57:36.811Z,31.20
2022-09-17T02:03:05.712Z,25.92
2022-09-17T02:08:38.216Z,35.83
2022-09-17T02:14:08.537Z,27.25
2022-09-17T02:19:38.124Z,26.75
2022-09-17T02:25:07.767Z,29.10
2022-09-17T02:30:37.254Z,27.10
2022-09-17T02:36:04.351Z,27.85
2022-09-17T02:41:50.332Z,25.02
2022-09-17T02:47:36.694Z,27.67
2022-09-17T02:53:19.912Z,34.78
2022-09-17T02:58:57.346Z,36.67
2022-09-17T03:04:25.543Z,29.25
2022-09-17T03:09:51.068Z,40.53
2022-09-17T03:15:21.233Z,39.17
2022-09-17T03:20:49.906Z,35.22
2022-09-17T03:26:19.006Z,32.65
2022-09-17T03:31:45.427Z,35.83
2022-09-17T03:37:14.168Z,38.17
2022-09-17T03:42:39.183Z,40.60
2022-09-17T03:48:09.321Z,53.50
2022-09-17T03:53:37.892Z,49.25
2022-09-17T03:59:03.336Z,44.05
2022-09-17T04:04:29.561Z,36.35
2022-09-17T04:09:58.931Z,36.10
2022-09-17T04:15:25.540Z,37.05
2022-09-17T04:26:24.970Z,45.92
2022-09-17T04:31:49.820Z,32.80
2022-09-17T04:37:16.984Z,28.67
2022-09-17T04:42:46.028Z,27.98
2022-09-17T04:48:14.117Z,23.00
2022-09-17T04:53:44.419Z,26.25
2022-09-17T04:59:09.361Z,23.92
2022-09-17T05:04:34.826Z,23.20
2022-09-17T05:10:02.719Z,25.77
2022-09-17T05:15:32.080Z,27.23
2022-09-17T05:20:57.017Z,24.65
2022-09-17T05:26:23.857Z,16.20
2022-09-17T05:31:48.511Z,24.35
2022-09-17T05:37:13.879Z,26.65
2022-09-17T05:42:39.097Z,24.92
2022-09-17T05:48:04.473Z,19.10
2022-09-17T05:53:28.668Z,20.65
2022-09-17T05:58:58.076Z,16.98
2022-09-17T06:04:21.984Z,14.85
2022-09-17T06:09:46.504Z,17.15
2022-09-17T06:15:14.716Z,21.80
2022-09-17T06:20:40.492Z,15.07
2022-09-17T06:26:06.771Z,16.77
2022-09-17T06:31:32.514Z,18.10
2022-09-17T06:36:57.251Z,12.93
2022-09-17T06:42:21.424Z,13.48
2022-09-17T06:47:47.382Z,17.55
2022-09-17T06:53:12.181Z,11.20
2022-09-17T06:58:38.186Z,16.13
2022-09-17T07:04:04.510Z,20.95
2022-09-17T07:09:28.853Z,9.15
2022-09-17T07:14:53.923Z,7.75
2022-09-17T07:20:20.437Z,7.60
2022-09-17T07:25:44.760Z,17.70
2022-09-17T07:31:15.235Z,10.60
2022-09-17T07:36:44.319Z,9.35
2022-09-17T07:42:09.817Z,10.63
2022-09-17T07:47:40.156Z,11.00
2022-09-17T07:53:06.392Z,16.05
2022-09-17T07:58:32.543Z,8.55
2022-09-17T08:03:56.956Z,10.15
2022-09-17T08:09:23.546Z,10.85
2022-09-17T08:14:48.101Z,9.57
2022-09-17T08:20:12.911Z,9.50
2022-09-17T08:25:40.846Z,8.50
2022-09-17T08:31:08.315Z,8.27
2022-09-17T08:36:32.502Z,11.07
2022-09-17T08:42:10.602Z,7.03
2022-09-17T08:47:37.831Z,7.57
2022-09-17T08:53:23.453Z,11.43
2022-09-17T08:59:04.240Z,6.50
2022-09-17T09:04:48.588Z,10.10
2022-09-17T09:10:20.982Z,18.98
2022-09-17T09:15:53.274Z,8.02
2022-09-17T09:21:27.630Z,17.33
2022-09-17T09:27:03.492Z,19.10
2022-09-17T09:32:52.548Z,7.28
2022-09-17T09:38:29.275Z,16.92
2022-09-17T09:44:04.456Z,22.33
2022-09-17T09:49:53.637Z,29.85
2022-09-17T09:55:36.392Z,21.02
2022-09-17T10:01:00.703Z,12.35
2022-09-17T10:06:31.069Z,16.40
2022-09-17T10:12:04.087Z,10.25
2022-09-17T10:17:29.321Z,9.45
2022-09-17T10:22:55.320Z,9.40
2022-09-17T10:28:42.537Z,7.10
2022-09-17T10:34:06.140Z,11.18
2022-09-17T10:39:36.585Z,9.10
2022-09-17T10:45:01.956Z,14.13
2022-09-17T10:50:30.133Z,12.30
2022-09-17T10:56:06.951Z,26.47
2022-09-17T11:01:49.335Z,17.77
2022-09-17T11:07:44.330Z,14.73
2022-09-17T11:13:22.707Z,17.55
2022-09-17T11:18:54.754Z,33.97
2022-09-17T11:25:04.521Z,36.28
2022-09-17T11:30:34.887Z,32.25
2022-09-17T11:36:04.440Z,40.10
2022-09-17T11:41:32.740Z,22.02
2022-09-17T11:47:05.128Z,12.75
2022-09-17T11:52:34.799Z,15.90
2022-09-17T11:58:04.107Z,9.68
2022-09-17T12:03:35.806Z,12.02
2022-09-17T12:09:05.953Z,8.82
2022-09-17T12:14:39.972Z,9.65
2022-09-17T12:20:12.676Z,6.72
2022-09-17T12:25:45.551Z,10.95
2022-09-17T12:31:20.540Z,6.63
2022-09-17T12:36:53.436Z,7.05
2022-09-17T12:42:35.088Z,6.13
2022-09-17T12:48:24.720Z,6.85
2022-09-17T12:54:04.197Z,7.05
2022-09-17T13:05:22.672Z,10.25
2022-09-17T13:11:18.018Z,11.48
2022-09-17T13:16:49.893Z,10.43
2022-09-17T13:22:18.689Z,9.60
2022-09-17T13:33:10.891Z,16.23
2022-09-17T13:38:43.722Z,22.20
2022-09-17T13:44:10.728Z,43.42
2022-09-17T13:49:35.542Z,22.92
2022-09-17T13:55:01.646Z,21.02
2022-09-17T14:00:53.145Z,22.35
2022-09-17T14:06:49.494Z,16.65
2022-09-17T14:12:52.252Z,18.20
2022-09-17T14:18:39.238Z,39.20
2022-09-17T14:24:15.052Z,32.75
2022-09-17T14:30:07.058Z,13.52
2022-09-17T14:35:36.662Z,9.10
2022-09-17T14:41:07.710Z,12.90
2022-09-17T14:46:37.547Z,5.78
2022-09-17T14:52:04.121Z,5.50
2022-09-17T14:57:29.623Z,6.97
2022-09-17T15:02:59.564Z,6.20
2022-09-17T15:08:26.131Z,5.72
2022-09-17T15:13:53.286Z,5.28
2022-09-17T15:19:24.507Z,7.10
2022-09-17T15:24:54.242Z,5.57
2022-09-17T15:30:20.885Z,12.18
2022-09-17T15:36:00.550Z,6.20
2022-09-17T15:41:34.799Z,13.52
2022-09-17T15:47:32.199Z,22.35
2022-09-17T15:53:14.529Z,10.93
2022-09-17T15:58:54.234Z,8.82
2022-09-17T16:04:26.355Z,9.50
2022-09-17T16:09:53.167Z,7.63
2022-09-17T16:15:22.628Z,8.25
2022-09-17T16:20:46.552Z,8.88
2022-09-17T16:26:15.535Z,13.95
2022-09-17T16:31:41.416Z,9.48
2022-09-17T16:37:06.258Z,9.38
2022-09-17T16:42:33.932Z,13.10
2022-09-17T16:48:03.265Z,11.00
2022-09-17T16:53:28.012Z,14.48
2022-09-17T16:58:55.709Z,21.83
2022-09-17T17:04:21.484Z,23.88
2022-09-17T17:09:46.164Z,29.17
2022-09-17T17:15:10.940Z,27.02
2022-09-17T17:20:37.557Z,32.72
2022-09-17T17:26:07.269Z,16.90
2022-09-17T17:31:31.048Z,14.07
2022-09-17T17:36:57.058Z,9.52
2022-09-17T17:42:21.596Z,14.15
2022-09-17T17:47:46.234Z,9.60
2022-09-17T17:53:11.843Z,8.27
2022-09-17T17:58:36.928Z,9.45
2022-09-17T18:04:03.967Z,13.73
2022-09-17T18:09:30.869Z,10.02
2022-09-17T18:14:54.615Z,13.75
2022-09-17T18:20:19.430Z,15.50
2022-09-17T18:25:53.535Z,13.07
2022-09-17T18:31:22.894Z,12.25
2022-09-17T18:36:50.939Z,11.50
2022-09-17T18:42:20.391Z,9.73
2022-09-17T18:47:44.651Z,9.95
2022-09-17T18:53:08.902Z,10.32
2022-09-17T18:58:34.262Z,9.13
2022-09-17T19:03:59.482Z,11.15
2022-09-17T19:09:23.983Z,10.73
2022-09-17T19:14:50.700Z,10.23
2022-09-17T19:20:19.812Z,9.52
2022-09-17T19:25:45.040Z,11.17
2022-09-17T19:31:12.597Z,9.93
2022-09-17T19:36:37.144Z,9.43
2022-09-17T19:42:03.233Z,12.02
2022-09-17T19:47:30.214Z,14.57
2022-09-17T19:52:54.245Z,11.30
2022-09-17T19:58:18.281Z,14.02
2022-09-17T20:03:45.514Z,17.92
2022-09-17T20:09:10.743Z,20.83
2022-09-17T20:14:34.998Z,22.30
2022-09-17T20:20:01.522Z,18.42
2022-09-17T20:25:27.532Z,19.45
2022-09-17T20:31:00.991Z,18.30
2022-09-17T20:36:28.200Z,14.52
2022-09-17T20:41:54.265Z,24.00
2022-09-17T20:47:18.549Z,19.25
2022-09-17T20:52:45.124Z,16.20
2022-09-17T20:58:09.906Z,20.17
2022-09-17T21:03:34.755Z,18.52
2022-09-17T21:09:01.494Z,16.52
2022-09-17T21:14:27.289Z,18.15
2022-09-17T21:19:52.587Z,16.92
2022-09-17T21:25:17.899Z,24.55
2022-09-17T21:30:43.889Z,17.27
2022-09-17T21:36:11.350Z,16.70
2022-09-17T21:41:42.102Z,20.33
2022-09-17T21:47:10.413Z,15.68
2022-09-17T21:52:36.373Z,14.07
2022-09-17T21:58:02.117Z,15.95
2022-09-17T22:03:25.893Z,18.35
2022-09-17T22:08:51.471Z,14.23
2022-09-17T22:14:21.293Z,14.55
2022-09-17T22:19:45.532Z,14.70
2022-09-17T22:25:10.630Z,11.52
2022-09-17T22:30:37.808Z,12.05
2022-09-17T22:36:05.836Z,11.05
2022-09-17T22:41:31.835Z,12.65
2022-09-17T22:46:57.911Z,9.02
2022-09-17T22:52:23.307Z,10.07
2022-09-17T22:57:48.008Z,12.18
2022-09-17T23:03:13.570Z,13.00
2022-09-17T23:08:38.559Z,11.80
2022-09-17T23:14:07.233Z,16.80
2022-09-17T23:19:32.568Z,10.52
2022-09-17T23:24:57.028Z,16.88
2022-09-17T23:30:23.023Z,12.20
2022-09-17T23:35:48.586Z,14.73
2022-09-17T23:41:14.928Z,11.77
2022-09-17T23:46:38.422Z,13.52
2022-09-17T23:52:04.164Z,19.77
2022-09-17T23:57:30.422Z,16.98
